Time;durP1;ratioP1;P1;durP2;ratioP2;P2;SDS_P1;SDS_P2;PMS_P1;PMS_P2;Temp;Humidity;BMP_temperature;BMP_pressure;BME280_temperature;BME280_humidity;BME280_pressure;Samples;Min_cycle;Max_cycle;Signal;HPM_P1;HPM_P2
2023/07/27 00:02:22;;;;;;;9.57;6.05;;;11.60;99.90;;;;;;5036889;28;20018;-69
2023/07/27 00:04:47;;;;;;;7.43;5.05;;;11.50;99.90;;;;;;5037247;28;20068;-68
2023/07/27 00:07:13;;;;;;;11.18;6.28;;;11.50;99.90;;;;;;5036787;28;20025;-68
2023/07/27 00:09:39;;;;;;;10.50;6.18;;;11.50;99.90;;;;;;5036910;28;20152;-68
2023/07/27 00:12:05;;;;;;;9.90;5.70;;;11.40;99.90;;;;;;5036582;28;20021;-68
2023/07/27 00:14:30;;;;;;;12.32;5.47;;;11.40;99.90;;;;;;5036482;28;20029;-68
2023/07/27 00:16:56;;;;;;;11.75;5.93;;;11.40;99.90;;;;;;5036667;28;20075;-68
2023/07/27 00:19:21;;;;;;;13.35;5.85;;;11.40;99.90;;;;;;5036458;28;20027;-68
2023/07/27 00:21:47;;;;;;;13.43;6.40;;;11.40;99.90;;;;;;5036702;28;20035;-68
2023/07/27 00:24:13;;;;;;;9.60;5.43;;;11.30;99.90;;;;;;5036586;28;20100;-68
2023/07/27 00:26:38;;;;;;;10.13;5.70;;;11.30;99.90;;;;;;5036017;28;20072;-68
2023/07/27 00:29:04;;;;;;;12.52;5.95;;;11.30;99.90;;;;;;5036423;28;20083;-68
2023/07/27 00:31:30;;;;;;;9.57;5.57;;;11.20;99.90;;;;;;5018507;28;20025;-68
2023/07/27 00:33:55;;;;;;;9.43;5.45;;;11.10;99.90;;;;;;5036158;28;20021;-68
2023/07/27 00:36:21;;;;;;;12.07;5.75;;;11.00;99.90;;;;;;5036125;28;20026;-68
2023/07/27 00:38:46;;;;;;;10.52;5.10;;;11.00;99.90;;;;;;5035193;28;20057;-68
2023/07/27 00:41:12;;;;;;;9.38;4.88;;;11.00;99.90;;;;;;5035986;28;20068;-68
2023/07/27 00:43:38;;;;;;;9.02;4.95;;;11.00;99.90;;;;;;5036273;28;20028;-68
2023/07/27 00:46:03;;;;;;;7.78;4.97;;;11.00;99.90;;;;;;5035964;28;20095;-68
2023/07/27 00:48:29;;;;;;;11.13;5.03;;;10.90;99.90;;;;;;5036425;28;20426;-68
2023/07/27 00:50:55;;;;;;;11.52;5.88;;;10.90;99.90;;;;;;5035902;28;20370;-68
2023/07/27 00:53:21;;;;;;;11.50;5.63;;;10.90;99.90;;;;;;5035780;28;20026;-68
2023/07/27 00:55:47;;;;;;;9.60;5.28;;;10.90;99.90;;;;;;5035514;28;20374;-68
2023/07/27 00:58:13;;;;;;;10.00;5.68;;;10.80;99.90;;;;;;5035723;28;20061;-68
2023/07/27 01:00:42;;;;;;;15.88;5.28;;;10.80;99.90;;;;;;5035675;28;20029;-68
2023/07/27 01:03:07;;;;;;;8.77;4.68;;;10.90;99.90;;;;;;5018691;28;20338;-68
2023/07/27 01:05:34;;;;;;;7.40;4.70;;;10.80;99.90;;;;;;5035290;28;20024;-68
2023/07/27 01:07:59;;;;;;;8.57;5.20;;;10.80;99.90;;;;;;5035957;28;20021;-68
2023/07/27 01:10:40;;;;;;;10.38;4.97;;;10.80;99.90;;;;;;5036061;28;20512;-68
2023/07/27 01:13:12;;;;;;;;;;;10.80;99.90;;;;;;5035795;28;20423;-67
2023/07/27 01:15:43;;;;;;;14.90;5.40;;;10.80;99.90;;;;;;5035686;28;20012;-67
2023/07/27 01:18:35;;;;;;;9.60;4.80;;;10.70;99.90;;;;;;5035193;28;20025;-68
2023/07/27 01:21:24;;;;;;;7.90;4.63;;;10.70;99.90;;;;;;5035909;28;20040;-67
2023/07/27 01:24:08;;;;;;;7.83;4.83;;;10.70;99.90;;;;;;5035580;28;20029;-68
2023/07/27 01:26:47;;;;;;;13.20;5.25;;;10.60;99.90;;;;;;5035272;28;20354;-68
2023/07/27 01:29:33;;;;;;;10.85;5.07;;;10.60;99.90;;;;;;5035696;28;20438;-67
2023/07/27 01:32:00;;;;;;;16.70;5.03;;;10.50;99.90;;;;;;5035187;28;20056;-69
2023/07/27 01:34:32;;;;;;;8.23;4.90;;;10.60;99.90;;;;;;5035282;28;20104;-68
2023/07/27 01:37:03;;;;;;;9.57;4.78;;;10.60;99.90;;;;;;5035363;28;20347;-67
2023/07/27 01:39:32;;;;;;;8.82;4.50;;;10.60;99.90;;;;;;5034956;28;20445;-67
2023/07/27 01:42:00;;;;;;;12.55;4.93;;;10.50;99.90;;;;;;5035151;28;20517;-67
2023/07/27 01:44:29;;;;;;;11.50;4.85;;;10.50;99.90;;;;;;5035083;28;20123;-67
2023/07/27 01:46:56;;;;;;;8.35;4.55;;;10.50;99.90;;;;;;5035331;28;20073;-68
2023/07/27 01:49:23;;;;;;;13.05;5.07;;;10.50;99.90;;;;;;5034692;28;20493;-68
2023/07/27 01:51:50;;;;;;;8.20;4.60;;;10.50;99.90;;;;;;5034393;28;20099;-67
2023/07/27 01:54:16;;;;;;;10.05;4.38;;;10.50;99.90;;;;;;5035147;28;20029;-67
2023/07/27 01:56:44;;;;;;;9.55;4.72;;;10.50;99.90;;;;;;5034560;28;20033;-68
2023/07/27 01:59:10;;;;;;;9.93;5.15;;;10.40;99.90;;;;;;5034858;28;20025;-67
2023/07/27 02:01:42;;;;;;;63.25;5.45;;;10.40;99.90;;;;;;5034728;28;20044;-68
2023/07/27 02:04:08;;;;;;;20.67;4.85;;;10.40;99.90;;;;;;5034443;28;20112;-68
2023/07/27 02:06:34;;;;;;;9.50;4.93;;;10.50;99.90;;;;;;5034989;28;20108;-68
2023/07/27 02:09:00;;;;;;;18.75;4.80;;;10.40;99.90;;;;;;5034185;28;20097;-68
2023/07/27 02:11:26;;;;;;;10.07;5.13;;;10.40;99.90;;;;;;5035180;28;20025;-68
2023/07/27 02:14:03;;;;;;;7.60;5.03;;;10.40;99.90;;;;;;5034573;28;20071;-68
2023/07/27 02:16:43;;;;;;;8.95;5.07;;;10.40;99.90;;;;;;5034800;28;20030;-67
2023/07/27 02:19:12;;;;;;;8.35;4.70;;;10.40;99.90;;;;;;5034182;28;20022;-65
2023/07/27 02:21:38;;;;;;;9.73;4.85;;;10.50;99.90;;;;;;5033758;28;20470;-65
2023/07/27 02:24:04;;;;;;;8.80;4.97;;;10.40;99.90;;;;;;5034599;28;20025;-65
2023/07/27 02:26:31;;;;;;;14.00;5.15;;;10.40;99.90;;;;;;5034335;28;20354;-65
2023/07/27 02:28:57;;;;;;;7.75;4.90;;;10.40;99.90;;;;;;5032799;28;20025;-65
2023/07/27 02:31:23;;;;;;;9.95;5.40;;;10.30;99.90;;;;;;5034539;28;20040;-65
2023/07/27 02:33:50;;;;;;;9.60;5.07;;;10.30;99.90;;;;;;5034396;28;20025;-65
2023/07/27 02:36:15;;;;;;;8.20;4.90;;;10.20;99.90;;;;;;5033998;28;20040;-65
2023/07/27 02:38:41;;;;;;;8.95;4.88;;;10.20;99.90;;;;;;5033925;28;20533;-65
2023/07/27 02:41:09;;;;;;;10.85;5.82;;;10.10;99.90;;;;;;5033701;28;20426;-65
2023/07/27 02:43:35;;;;;;;8.73;4.63;;;10.20;99.90;;;;;;5033794;28;20114;-65
2023/07/27 02:46:01;;;;;;;8.38;5.25;;;10.20;99.90;;;;;;5033542;28;20444;-65
2023/07/27 02:48:26;;;;;;;7.22;4.55;;;10.20;99.90;;;;;;5034431;28;20063;-65
2023/07/27 02:50:52;;;;;;;14.45;5.30;;;10.20;99.90;;;;;;5033951;28;20116;-65
2023/07/27 02:53:18;;;;;;;9.45;4.55;;;10.20;99.90;;;;;;5033939;28;20469;-65
2023/07/27 02:56:00;;;;;;;11.30;4.63;;;10.20;99.90;;;;;;5033643;28;20478;-65
2023/07/27 02:58:27;;;;;;;10.95;5.18;;;10.20;99.90;;;;;;5033846;28;20454;-65
2023/07/27 03:00:54;;;;;;;9.45;5.18;;;10.20;99.90;;;;;;5033607;28;20516;-65
2023/07/27 03:03:20;;;;;;;11.05;5.60;;;10.20;99.90;;;;;;5033840;28;20025;-66
2023/07/27 03:05:46;;;;;;;9.90;5.57;;;10.20;99.90;;;;;;5033713;28;20036;-65
2023/07/27 03:08:12;;;;;;;9.13;4.85;;;10.20;99.90;;;;;;5033682;28;20021;-65
2023/07/27 03:10:38;;;;;;;10.38;5.18;;;10.20;99.90;;;;;;5033950;28;20029;-65
2023/07/27 03:13:04;;;;;;;9.50;5.53;;;10.20;99.90;;;;;;5033504;28;20426;-65
2023/07/27 03:15:30;;;;;;;10.27;5.80;;;10.20;99.90;;;;;;5033718;28;20037;-65
2023/07/27 03:17:56;;;;;;;12.23;5.38;;;10.10;99.90;;;;;;5033874;28;20503;-65
2023/07/27 03:20:21;;;;;;;10.30;5.60;;;10.10;99.90;;;;;;5033819;28;20029;-65
2023/07/27 03:22:48;;;;;;;16.65;5.40;;;10.10;99.90;;;;;;5033869;28;20037;-65
2023/07/27 03:25:14;;;;;;;10.73;5.25;;;10.10;99.90;;;;;;5033529;28;20061;-65
2023/07/27 03:27:40;;;;;;;14.32;5.07;;;10.20;99.90;;;;;;5033516;28;20026;-66
2023/07/27 03:30:06;;;;;;;9.25;5.10;;;10.20;99.90;;;;;;5016642;28;20032;-66
2023/07/27 03:32:32;;;;;;;10.10;5.13;;;10.20;99.90;;;;;;5032197;28;20018;-65
2023/07/27 03:34:57;;;;;;;9.25;5.13;;;10.20;99.90;;;;;;5033401;28;20032;-64
2023/07/27 03:37:23;;;;;;;15.00;5.57;;;10.20;99.90;;;;;;5033853;28;20029;-65
2023/07/27 03:39:48;;;;;;;9.05;4.95;;;10.20;99.90;;;;;;5033075;28;20018;-65
2023/07/27 03:42:14;;;;;;;10.18;4.90;;;10.10;99.90;;;;;;5033430;28;20060;-65
2023/07/27 03:44:40;;;;;;;11.27;5.28;;;10.20;99.90;;;;;;5033338;28;20026;-65
2023/07/27 03:47:05;;;;;;;12.85;5.47;;;10.20;99.90;;;;;;5033055;28;20424;-65
2023/07/27 03:49:31;;;;;;;14.55;5.22;;;10.20;99.90;;;;;;5033579;28;20072;-65
2023/07/27 03:51:56;;;;;;;14.73;5.45;;;10.10;99.90;;;;;;5033816;28;20017;-65
2023/07/27 03:54:22;;;;;;;9.18;5.25;;;10.20;99.90;;;;;;5033010;28;20030;-64
2023/07/27 03:56:48;;;;;;;10.23;5.38;;;10.20;99.90;;;;;;5033234;28;20049;-65
2023/07/27 03:59:13;;;;;;;10.35;4.88;;;10.20;99.90;;;;;;5032941;28;20057;-65
2023/07/27 04:01:39;;;;;;;9.88;5.80;;;10.20;99.90;;;;;;5033614;28;20033;-65
2023/07/27 04:04:05;;;;;;;11.05;5.80;;;10.30;99.90;;;;;;5033668;28;20022;-65
2023/07/27 04:06:30;;;;;;;9.73;4.82;;;10.30;99.90;;;;;;5033124;28;20021;-65
2023/07/27 04:08:56;;;;;;;9.18;5.22;;;10.40;99.90;;;;;;5033075;28;20037;-66
2023/07/27 04:11:21;;;;;;;9.68;5.18;;;10.40;99.90;;;;;;5032840;28;20029;-66
2023/07/27 04:13:47;;;;;;;8.60;4.57;;;10.50;99.90;;;;;;5034143;28;20032;-66
2023/07/27 04:16:13;;;;;;;8.57;4.93;;;10.60;99.90;;;;;;5037053;28;20112;-65
2023/07/27 04:18:38;;;;;;;10.48;4.97;;;10.60;99.90;;;;;;5036563;28;20483;-66
2023/07/27 04:21:04;;;;;;;7.78;4.72;;;10.60;99.90;;;;;;5036503;28;20052;-65
2023/07/27 04:23:30;;;;;;;6.55;4.55;;;10.70;99.90;;;;;;5036199;28;20013;-66
2023/07/27 04:25:55;;;;;;;9.13;5.43;;;10.70;99.90;;;;;;5036497;28;20048;-65
2023/07/27 04:28:21;;;;;;;10.40;5.00;;;10.70;99.90;;;;;;5036164;28;20026;-65
2023/07/27 04:30:46;;;;;;;7.93;4.60;;;10.70;99.90;;;;;;5036928;28;20099;-65
2023/07/27 04:33:12;;;;;;;8.20;4.82;;;10.70;99.90;;;;;;5036068;28;20028;-65
2023/07/27 04:35:38;;;;;;;9.68;4.80;;;10.70;99.90;;;;;;5036298;28;20038;-65
2023/07/27 04:38:03;;;;;;;8.48;4.85;;;10.70;99.90;;;;;;5036220;28;20028;-65
2023/07/27 04:40:29;;;;;;;7.88;4.82;;;10.80;99.90;;;;;;5035882;28;20029;-65
2023/07/27 04:42:54;;;;;;;7.95;4.90;;;10.80;99.90;;;;;;5036104;28;20037;-65
2023/07/27 04:45:20;;;;;;;12.70;5.13;;;10.90;99.90;;;;;;5036248;28;20049;-65
2023/07/27 04:47:46;;;;;;;10.48;5.28;;;10.90;99.90;;;;;;5036995;28;20109;-65
2023/07/27 04:50:11;;;;;;;8.82;5.20;;;11.00;99.90;;;;;;5036077;28;20065;-65
2023/07/27 04:52:37;;;;;;;8.07;4.40;;;11.00;99.90;;;;;;5036259;28;20390;-65
2023/07/27 04:55:03;;;;;;;12.95;5.80;;;11.10;99.90;;;;;;5036229;28;20028;-65
2023/07/27 04:57:29;;;;;;;11.57;5.35;;;11.10;99.90;;;;;;5035899;28;20449;-65
2023/07/27 04:59:54;;;;;;;10.90;5.50;;;11.00;99.90;;;;;;5035669;28;20113;-65
2023/07/27 05:02:20;;;;;;;8.50;5.15;;;11.00;99.90;;;;;;5035829;28;20017;-65
2023/07/27 05:04:45;;;;;;;9.90;5.25;;;11.00;99.90;;;;;;5035690;28;20358;-64
2023/07/27 05:07:11;;;;;;;12.40;4.97;;;11.10;99.90;;;;;;5035709;28;20032;-65
2023/07/27 05:09:36;;;;;;;10.15;5.43;;;11.10;99.90;;;;;;5036197;28;20021;-65
2023/07/27 05:12:02;;;;;;;7.57;4.93;;;11.20;99.90;;;;;;5035714;28;20026;-65
2023/07/27 05:14:28;;;;;;;11.02;4.82;;;11.40;99.90;;;;;;5035898;28;20044;-65
2023/07/27 05:16:53;;;;;;;10.02;4.68;;;11.30;99.90;;;;;;5035554;28;20358;-65
2023/07/27 05:19:19;;;;;;;11.73;5.15;;;11.20;99.90;;;;;;5035534;28;20032;-65
2023/07/27 05:21:45;;;;;;;11.10;5.15;;;11.20;99.90;;;;;;5035090;28;20092;-65
2023/07/27 05:24:10;;;;;;;17.70;5.60;;;11.20;99.90;;;;;;5034736;28;20056;-65
2023/07/27 05:26:36;;;;;;;11.15;5.63;;;11.40;99.90;;;;;;5035364;28;20021;-65
2023/07/27 05:29:01;;;;;;;10.43;5.43;;;11.50;99.90;;;;;;5035002;28;20037;-65
2023/07/27 05:31:27;;;;;;;15.98;6.13;;;11.50;99.90;;;;;;5035040;28;20030;-65
2023/07/27 05:33:53;;;;;;;11.00;6.07;;;11.60;99.90;;;;;;5034925;28;20032;-65
2023/07/27 05:36:18;;;;;;;9.63;5.40;;;11.60;99.90;;;;;;5035674;28;20021;-64
2023/07/27 05:38:44;;;;;;;10.70;5.50;;;11.70;99.90;;;;;;5034812;28;20013;-64
2023/07/27 05:41:09;;;;;;;9.23;5.32;;;11.80;99.90;;;;;;5034998;28;20029;-64
2023/07/27 05:43:35;;;;;;;12.02;5.82;;;11.90;99.90;;;;;;5035037;28;20085;-64
2023/07/27 05:46:01;;;;;;;11.15;6.13;;;12.10;99.90;;;;;;5025404;28;20056;-64
2023/07/27 05:48:27;;;;;;;10.32;6.30;;;12.20;99.90;;;;;;5014853;28;20109;-64
2023/07/27 05:50:53;;;;;;;9.32;6.03;;;12.30;99.90;;;;;;5015076;28;20022;-66
2023/07/27 05:53:19;;;;;;;10.95;6.03;;;12.40;99.90;;;;;;5015919;28;20068;-66
2023/07/27 05:55:44;;;;;;;11.52;5.82;;;12.50;99.90;;;;;;5014949;28;20025;-67
2023/07/27 05:58:10;;;;;;;13.00;6.15;;;12.60;99.90;;;;;;5014700;28;20018;-66
2023/07/27 06:00:36;;;;;;;10.48;5.53;;;12.70;99.90;;;;;;5015091;28;20033;-67
2023/07/27 06:03:02;;;;;;;9.30;5.65;;;12.80;99.90;;;;;;5013887;28;20366;-66
2023/07/27 06:05:27;;;;;;;9.00;5.32;;;13.00;99.90;;;;;;5014562;28;20026;-67
2023/07/27 06:07:53;;;;;;;9.30;5.00;;;13.10;99.90;;;;;;5015535;28;20419;-67
2023/07/27 06:10:19;;;;;;;11.80;5.70;;;13.30;99.90;;;;;;5014387;28;20491;-66
2023/07/27 06:12:44;;;;;;;9.02;5.30;;;13.40;99.90;;;;;;5014933;28;20033;-66
2023/07/27 06:15:10;;;;;;;11.13;5.53;;;13.60;99.90;;;;;;5014747;28;20041;-67
2023/07/27 06:17:36;;;;;;;13.55;5.82;;;13.70;99.90;;;;;;5014653;28;20370;-66
2023/07/27 06:20:02;;;;;;;18.58;7.13;;;13.70;99.90;;;;;;5014511;28;20025;-66
2023/07/27 06:22:28;;;;;;;10.40;6.03;;;13.80;99.90;;;;;;5014529;28;20104;-66
2023/07/27 06:24:53;;;;;;;12.02;5.93;;;13.80;99.90;;;;;;5014471;28;20491;-66
2023/07/27 06:27:19;;;;;;;11.57;5.40;;;13.80;99.90;;;;;;5014866;28;20018;-66
2023/07/27 06:29:45;;;;;;;8.70;5.75;;;13.90;99.90;;;;;;5015134;28;20415;-66
2023/07/27 06:32:10;;;;;;;12.82;6.10;;;13.90;99.90;;;;;;5014387;28;20058;-66
2023/07/27 06:34:36;;;;;;;12.52;5.32;;;13.90;99.90;;;;;;5014353;28;20347;-66
2023/07/27 06:37:01;;;;;;;8.73;5.32;;;14.00;99.90;;;;;;4996404;28;20029;-66
2023/07/27 06:39:28;;;;;;;9.70;5.85;;;14.00;99.90;;;;;;5014312;28;20026;-66
2023/07/27 06:41:54;;;;;;;9.27;5.10;;;14.10;99.90;;;;;;5014360;28;20041;-67
2023/07/27 06:44:19;;;;;;;8.48;5.47;;;14.20;99.90;;;;;;5014174;28;20025;-66
2023/07/27 06:46:45;;;;;;;10.52;5.63;;;14.20;99.90;;;;;;5014437;28;20073;-66
2023/07/27 06:49:11;;;;;;;9.82;5.22;;;14.40;99.90;;;;;;5014181;28;20030;-66
2023/07/27 06:51:37;;;;;;;11.27;5.25;;;14.50;99.90;;;;;;5014260;28;20028;-66
2023/07/27 06:54:02;;;;;;;8.38;5.28;;;14.70;99.90;;;;;;5014374;28;20021;-63
2023/07/27 06:56:28;;;;;;;8.35;4.50;;;14.80;99.90;;;;;;5013823;28;20504;-64
2023/07/27 06:58:54;;;;;;;14.15;4.97;;;14.80;99.90;;;;;;5014062;28;20056;-63
2023/07/27 07:01:19;;;;;;;10.32;4.68;;;15.00;99.90;;;;;;5013910;28;20038;-64
2023/07/27 07:03:45;;;;;;;11.57;4.20;;;15.10;99.90;;;;;;5013999;28;20022;-65
2023/07/27 07:06:11;;;;;;;11.68;4.80;;;15.30;99.90;;;;;;5013999;28;20089;-64
2023/07/27 07:08:36;;;;;;;10.05;4.25;;;15.40;99.90;;;;;;5013962;28;20428;-65
2023/07/27 07:11:02;;;;;;;6.43;4.07;;;15.60;99.90;;;;;;5013959;28;20037;-64
2023/07/27 07:13:29;;;;;;;8.32;4.15;;;15.70;99.90;;;;;;5014291;28;20030;-65
2023/07/27 07:15:54;;;;;;;7.00;3.38;;;15.80;99.90;;;;;;5014093;28;20096;-66
2023/07/27 07:18:20;;;;;;;9.95;3.08;;;15.90;99.90;;;;;;5013860;28;20025;-66
2023/07/27 07:20:46;;;;;;;6.18;2.88;;;16.10;99.90;;;;;;5014251;28;20037;-66
2023/07/27 07:23:12;;;;;;;5.13;2.90;;;16.30;99.90;;;;;;5014249;28;20022;-65
2023/07/27 07:25:40;;;;;;;7.57;2.97;;;16.50;99.90;;;;;;5013689;28;20026;-65
2023/07/27 07:28:05;;;;;;;6.07;2.70;;;16.70;99.90;;;;;;5013733;28;20462;-66
2023/07/27 07:30:31;;;;;;;5.53;2.97;;;16.80;99.90;;;;;;5013983;28;20022;-65
2023/07/27 07:32:57;;;;;;;4.05;2.58;;;17.00;99.90;;;;;;5013962;28;20029;-65
2023/07/27 07:35:22;;;;;;;6.93;2.75;;;17.00;99.90;;;;;;5013681;28;20033;-65
2023/07/27 07:37:49;;;;;;;15.00;3.47;;;17.10;99.90;;;;;;5013954;28;20021;-65
2023/07/27 07:40:16;;;;;;;5.70;3.22;;;17.10;99.90;;;;;;5013599;28;20026;-65
2023/07/27 07:42:42;;;;;;;11.52;3.25;;;17.20;99.90;;;;;;5013564;28;20075;-65
2023/07/27 07:45:08;;;;;;;5.57;3.33;;;17.20;99.90;;;;;;5013356;28;20105;-66
2023/07/27 07:47:34;;;;;;;5.68;2.72;;;17.20;99.90;;;;;;5014551;28;20029;-66
2023/07/27 07:50:00;;;;;;;10.15;2.80;;;17.30;99.90;;;;;;5017123;28;20029;-66
2023/07/27 07:52:25;;;;;;;5.90;2.42;;;17.30;99.90;;;;;;5017845;28;20049;-65
2023/07/27 07:54:51;;;;;;;7.30;2.65;;;17.40;99.90;;;;;;5017960;28;20463;-66
2023/07/27 07:57:19;;;;;;;6.65;2.60;;;17.50;99.90;;;;;;5017246;28;20021;-65
2023/07/27 07:59:45;;;;;;;7.90;2.40;;;17.50;99.90;;;;;;5017103;28;20032;-66
2023/07/27 08:02:11;;;;;;;4.78;2.47;;;17.60;99.90;;;;;;5017570;28;20113;-66
2023/07/27 08:04:37;;;;;;;3.67;2.42;;;17.70;99.90;;;;;;5016987;28;20105;-66
2023/07/27 08:07:03;;;;;;;7.05;2.70;;;17.70;99.90;;;;;;5017204;28;20052;-66
2023/07/27 08:09:29;;;;;;;6.13;2.72;;;17.70;99.90;;;;;;5016942;28;20025;-65
2023/07/27 08:11:55;;;;;;;5.65;2.70;;;17.80;99.90;;;;;;5016956;28;20530;-65
2023/07/27 08:14:21;;;;;;;6.28;2.53;;;17.90;99.90;;;;;;5016674;28;20053;-66
2023/07/27 08:16:47;;;;;;;6.07;2.88;;;17.90;99.90;;;;;;5016776;28;20032;-65
2023/07/27 08:19:12;;;;;;;4.93;2.40;;;18.00;99.90;;;;;;5017280;28;20108;-66
2023/07/27 08:21:38;;;;;;;11.13;2.85;;;18.00;99.90;;;;;;5016714;28;20027;-67
2023/07/27 08:24:05;;;;;;;11.10;2.78;;;18.10;99.90;;;;;;5016927;28;20018;-67
2023/07/27 08:26:31;;;;;;;5.75;2.60;;;18.10;99.90;;;;;;5016697;28;20022;-66
2023/07/27 08:28:57;;;;;;;3.85;2.35;;;18.20;99.90;;;;;;5016311;28;20034;-66
2023/07/27 08:31:22;;;;;;;4.00;2.40;;;18.30;99.90;;;;;;5016575;28;20517;-66
2023/07/27 08:33:48;;;;;;;8.18;2.55;;;18.40;99.90;;;;;;5016463;28;20030;-66
2023/07/27 08:36:14;;;;;;;6.43;2.67;;;18.40;99.90;;;;;;5016122;28;20022;-66
2023/07/27 08:38:39;;;;;;;4.88;2.58;;;18.60;99.90;;;;;;5016323;28;20018;-66
2023/07/27 08:41:05;;;;;;;7.65;2.30;;;18.60;99.90;;;;;;5016478;28;20488;-66
2023/07/27 08:43:31;;;;;;;6.13;2.33;;;18.70;99.90;;;;;;5016576;28;20026;-66
2023/07/27 08:45:58;;;;;;;3.70;2.35;;;18.80;99.90;;;;;;5016155;28;20063;-66
2023/07/27 08:48:24;;;;;;;7.43;2.70;;;18.80;99.90;;;;;;5016266;28;20030;-66
2023/07/27 08:50:52;;;;;;;8.00;2.45;;;18.90;99.90;;;;;;5016608;28;20037;-67
2023/07/27 08:53:20;;;;;;;5.93;2.58;;;18.90;99.90;;;;;;5016552;28;20061;-66
2023/07/27 08:55:46;;;;;;;4.93;2.45;;;18.90;99.90;;;;;;5016668;28;20022;-66
2023/07/27 08:58:12;;;;;;;5.60;2.30;;;18.90;99.90;;;;;;5016373;28;20029;-66
2023/07/27 09:00:38;;;;;;;7.65;2.55;;;18.80;99.90;;;;;;5015362;28;20038;-66
2023/07/27 09:03:04;;;;;;;8.32;2.60;;;18.80;99.90;;;;;;5015866;28;20018;-66
2023/07/27 09:05:59;;;;;;;5.63;2.50;;;18.70;99.90;;;;;;5015629;28;20354;-66
2023/07/27 09:08:28;;;;;;;6.18;2.65;;;18.50;99.90;;;;;;5016620;28;20061;-66
2023/07/27 09:10:53;;;;;;;8.73;2.55;;;18.50;99.90;;;;;;5015761;28;20108;-65
2023/07/27 09:13:19;;;;;;;7.65;2.88;;;18.40;99.90;;;;;;5015761;28;20101;-66
2023/07/27 09:15:45;;;;;;;5.25;2.45;;;18.40;99.90;;;;;;5015868;28;20034;-66
2023/07/27 09:18:14;;;;;;;8.70;2.25;;;18.40;99.90;;;;;;5015568;28;20113;-66
2023/07/27 09:20:40;;;;;;;9.35;2.10;;;18.30;99.90;;;;;;5015753;28;20032;-66
2023/07/27 09:23:07;;;;;;;6.22;2.38;;;18.30;99.90;;;;;;4997781;28;20603;-66
2023/07/27 09:25:33;;;;;;;10.40;2.20;;;18.30;99.90;;;;;;5015214;28;20030;-66
2023/07/27 09:27:59;;;;;;;4.85;2.13;;;18.30;99.90;;;;;;5015667;28;20361;-65
2023/07/27 09:30:25;;;;;;;4.47;2.08;;;18.40;99.90;;;;;;5015418;28;20022;-66
2023/07/27 09:32:52;;;;;;;4.82;2.20;;;18.60;99.90;;;;;;5015312;28;20029;-66
2023/07/27 09:35:20;;;;;;;5.28;1.88;;;18.80;99.90;;;;;;5015340;28;20446;-65
2023/07/27 09:37:47;;;;;;;3.35;2.15;;;18.70;99.90;;;;;;5015103;28;20026;-66
2023/07/27 09:40:16;;;;;;;11.55;1.90;;;18.80;99.90;;;;;;5015415;28;20025;-64
2023/07/27 09:42:44;;;;;;;4.22;2.40;;;18.80;99.90;;;;;;5015166;28;20037;-66
2023/07/27 09:45:10;;;;;;;5.60;1.90;;;18.70;99.90;;;;;;5014967;28;20026;-66
2023/07/27 09:47:36;;;;;;;7.07;1.92;;;18.70;99.90;;;;;;5015035;28;20065;-66
2023/07/27 09:50:03;;;;;;;6.15;2.10;;;18.60;99.90;;;;;;5015050;28;20473;-66
2023/07/27 09:52:29;;;;;;;3.15;1.70;;;18.40;99.90;;;;;;4997813;28;20030;-65
2023/07/27 09:54:56;;;;;;;4.93;2.20;;;18.30;99.90;;;;;;5014946;28;20022;-65
2023/07/27 09:57:23;;;;;;;5.60;1.80;;;18.30;99.90;;;;;;5014938;28;20025;-65
2023/07/27 09:59:49;;;;;;;2.92;1.80;;;18.30;99.90;;;;;;5014856;28;20037;-66
2023/07/27 10:02:15;;;;;;;6.05;2.00;;;18.40;99.90;;;;;;5034536;28;20450;-66
2023/07/27 10:04:51;;;;;;;9.13;1.95;;;18.40;99.90;;;;;;5034539;28;20037;-66
2023/07/27 10:07:21;;;;;;;5.10;1.83;;;18.50;99.90;;;;;;5034527;28;20021;-66
2023/07/27 10:09:47;;;;;;;4.43;1.93;;;18.60;99.90;;;;;;5034808;28;20017;-66
2023/07/27 10:12:27;;;;;;;4.80;1.85;;;18.70;99.90;;;;;;5034462;28;20314;-66
2023/07/27 10:15:19;;;;;;;3.53;1.90;;;18.70;99.90;;;;;;5017033;28;20503;-65
2023/07/27 10:17:48;;;;;;;9.63;2.08;;;18.70;99.90;;;;;;5034892;28;20026;-65
2023/07/27 10:20:23;;;;;;;5.35;2.03;;;18.80;99.90;;;;;;5034451;28;20350;-66
2023/07/27 10:23:18;;;;;;;3.10;1.58;;;19.00;99.90;;;;;;5034484;28;20025;-66
2023/07/27 10:26:05;;;;;;;3.63;1.70;;;19.20;99.90;;;;;;5034274;28;20032;-66
2023/07/27 10:28:41;;;;;;;4.70;1.67;;;19.10;99.90;;;;;;5034214;28;20053;-65
2023/07/27 10:31:27;;;;;;;9.55;2.40;;;19.10;99.90;;;;;;5034124;28;20450;-65
2023/07/27 10:34:03;;;;;;;9.68;2.13;;;19.20;99.90;;;;;;5034068;28;20017;-66
2023/07/27 10:36:47;;;;;;;3.10;1.55;;;19.00;99.90;;;;;;5033976;28;20026;-66
2023/07/27 10:39:18;;;;;;;4.93;1.83;;;18.80;99.90;;;;;;5033933;28;20454;-67
2023/07/27 10:42:12;;;;;;;5.60;2.22;;;18.70;99.90;;;;;;5033812;28;20033;-65
2023/07/27 10:44:45;;;;;;;3.33;2.00;;;18.50;99.90;;;;;;5034011;28;20041;-65
2023/07/27 10:47:15;;;;;;;3.33;1.95;;;18.40;99.90;;;;;;5034279;28;20102;-65
2023/07/27 10:49:43;;;;;;;6.88;2.50;;;18.30;99.90;;;;;;5034623;28;20112;-65
2023/07/27 10:52:09;;;;;;;4.28;1.77;;;18.30;99.90;;;;;;5033902;28;20037;-65
2023/07/27 10:54:40;;;;;;;3.17;1.65;;;18.20;99.90;;;;;;5033769;28;20365;-65
2023/07/27 10:57:07;;;;;;;4.20;1.88;;;18.20;99.90;;;;;;5033862;28;20093;-68
2023/07/27 10:59:37;;;;;;;5.03;1.58;;;18.30;99.90;;;;;;5034144;28;20040;-66
2023/07/27 11:02:08;;;;;;;3.70;1.70;;;18.20;99.90;;;;;;5034220;28;20040;-65
2023/07/27 11:04:34;;;;;;;3.50;1.77;;;18.20;99.90;;;;;;5033795;28;20036;-66
2023/07/27 11:07:00;;;;;;;6.25;2.47;;;18.20;99.90;;;;;;5034134;28;20021;-65
2023/07/27 11:09:26;;;;;;;3.10;1.77;;;18.20;99.90;;;;;;5033659;28;20022;-65
2023/07/27 11:12:00;;;;;;;4.35;1.75;;;18.20;99.90;;;;;;5033559;28;20021;-66
2023/07/27 11:14:26;;;;;;;4.18;1.75;;;18.30;99.90;;;;;;5033949;28;20028;-65
2023/07/27 11:16:53;;;;;;;4.15;1.85;;;18.30;99.90;;;;;;5033582;28;20052;-66
2023/07/27 11:19:19;;;;;;;3.88;1.65;;;18.40;99.90;;;;;;5034025;28;20025;-66
2023/07/27 11:21:44;;;;;;;4.13;2.10;;;18.40;99.90;;;;;;5033561;28;20022;-65
2023/07/27 11:24:13;;;;;;;7.80;2.08;;;18.50;99.90;;;;;;5037155;28;20026;-66
2023/07/27 11:26:39;;;;;;;6.57;1.98;;;18.50;99.90;;;;;;5037896;28;20032;-66
2023/07/27 11:29:05;;;;;;;3.30;1.92;;;18.60;99.90;;;;;;5037548;28;20366;-66
2023/07/27 11:31:31;;;;;;;5.85;1.88;;;18.60;99.90;;;;;;5038318;28;20033;-66
2023/07/27 11:33:58;;;;;;;5.55;2.05;;;18.70;99.90;;;;;;5037416;28;20021;-68
2023/07/27 11:36:28;;;;;;;7.60;1.90;;;18.80;99.90;;;;;;5037473;28;20027;-66
2023/07/27 11:38:54;;;;;;;5.18;1.83;;;19.00;99.90;;;;;;5037333;28;20060;-66
2023/07/27 11:41:20;;;;;;;5.15;2.20;;;19.20;99.90;;;;;;5037244;28;20381;-66
2023/07/27 11:43:51;;;;;;;4.63;1.80;;;19.30;99.90;;;;;;5037236;28;20025;-66
2023/07/27 11:46:17;;;;;;;2.67;1.77;;;19.50;99.90;;;;;;5036741;28;20049;-66
2023/07/27 11:48:43;;;;;;;4.07;1.75;;;19.60;99.90;;;;;;5037743;28;20086;-66
2023/07/27 11:51:09;;;;;;;6.57;2.22;;;19.60;99.90;;;;;;5037561;28;20025;-66
2023/07/27 11:53:35;;;;;;;3.15;1.80;;;19.70;99.90;;;;;;5036957;28;20113;-65
2023/07/27 11:56:08;;;;;;;4.00;2.38;;;19.70;99.90;;;;;;5037551;28;20338;-67
2023/07/27 11:58:34;;;;;;;4.05;2.15;;;19.60;99.90;;;;;;5036954;28;20049;-67
2023/07/27 12:01:00;;;;;;;8.57;2.13;;;19.60;99.90;;;;;;5036848;28;20067;-68
2023/07/27 12:03:26;;;;;;;3.50;2.13;;;19.60;99.90;;;;;;5036884;28;20109;-69
2023/07/27 12:05:54;;;;;;;4.75;2.00;;;19.60;99.90;;;;;;5037279;28;20498;-70
2023/07/27 12:08:21;;;;;;;3.45;1.90;;;19.50;99.90;;;;;;5036433;28;20075;-68
2023/07/27 12:11:05;;;;;;;6.05;2.15;;;19.50;99.90;;;;;;5036673;28;20365;-68
2023/07/27 12:13:34;;;;;;;4.00;2.42;;;19.50;99.90;;;;;;5036493;28;20458;-69
2023/07/27 12:16:02;;;;;;;5.47;1.95;;;19.40;99.90;;;;;;5036924;28;20033;-68
2023/07/27 12:18:29;;;;;;;4.00;1.90;;;19.40;99.90;;;;;;5036533;28;20167;-70
2023/07/27 12:20:56;;;;;;;6.28;2.47;;;19.30;99.90;;;;;;5036240;28;20075;-68
2023/07/27 12:23:22;;;;;;;4.57;2.15;;;19.30;99.90;;;;;;5036552;28;20029;-69
2023/07/27 12:25:49;;;;;;;3.80;2.20;;;19.20;99.90;;;;;;5036759;28;20047;-68
2023/07/27 12:28:14;;;;;;;7.07;2.20;;;19.20;99.90;;;;;;5036870;28;20033;-68
2023/07/27 12:30:40;;;;;;;3.63;2.00;;;19.30;99.90;;;;;;5036945;28;20025;-68
2023/07/27 12:33:06;;;;;;;8.93;2.20;;;19.40;99.90;;;;;;5036098;28;20025;-68
2023/07/27 12:35:32;;;;;;;9.75;2.38;;;19.40;99.90;;;;;;5035404;28;20024;-68
2023/07/27 12:37:58;;;;;;;7.53;2.55;;;19.40;99.90;;;;;;5036266;28;20048;-69
2023/07/27 12:40:25;;;;;;;5.43;2.58;;;19.40;99.90;;;;;;5036150;28;20083;-69
2023/07/27 12:42:51;;;;;;;8.40;2.60;;;19.40;99.90;;;;;;5036143;28;20465;-68
2023/07/27 12:45:19;;;;;;;4.68;2.17;;;19.40;99.90;;;;;;5035935;28;20048;-68